createdAt,value
2016-11-11T00:00:35.891Z,2.8
2016-11-11T00:01:36.851Z,2.8
2016-11-11T00:03:40.190Z,2.8
2016-11-11T00:05:43.028Z,2.8
2016-11-11T00:06:44.461Z,2.8
2016-11-11T00:07:45.891Z,2.8
2016-11-11T00:08:47.330Z,2.8
2016-11-11T00:09:48.773Z,2.8
2016-11-11T00:10:50.208Z,2.8
2016-11-11T00:11:51.643Z,2.8
2016-11-11T00:12:53.076Z,2.8
2016-11-11T00:13:54.517Z,2.8
2016-11-11T00:14:56.018Z,2.8
2016-11-11T00:15:57.458Z,2.8
2016-11-11T00:16:58.929Z,2.8
2016-11-11T00:18:00.365Z,2.8
2016-11-11T00:19:01.803Z,2.8
2016-11-11T00:20:03.739Z,2.8
2016-11-11T00:21:05.176Z,2.8
2016-11-11T00:22:06.614Z,2.8
2016-11-11T00:23:08.049Z,2.8
2016-11-11T00:24:09.478Z,2.8
2016-11-11T00:25:10.912Z,2.8
2016-11-11T00:26:12.493Z,2.7
2016-11-11T00:27:13.928Z,2.7
2016-11-11T00:28:15.364Z,2.7
2016-11-11T00:29:16.801Z,2.7
2016-11-11T00:30:18.235Z,2.7
2016-11-11T00:31:19.668Z,2.7
2016-11-11T00:32:21.109Z,2.8
2016-11-11T00:33:22.540Z,2.7
2016-11-11T00:34:23.979Z,2.7
2016-11-11T00:35:25.411Z,2.7
2016-11-11T00:36:26.845Z,2.7
2016-11-11T00:37:28.277Z,2.7
2016-11-11T00:38:29.708Z,2.7
2016-11-11T00:39:31.143Z,2.7
2016-11-11T00:40:33.082Z,2.7
2016-11-11T00:41:34.521Z,2.7
2016-11-11T00:43:37.364Z,2.7
2016-11-11T00:45:40.202Z,2.7
2016-11-11T00:46:41.633Z,2.7
2016-11-11T00:47:43.073Z,2.7
2016-11-11T00:48:44.506Z,2.7
2016-11-11T00:49:45.939Z,2.7
2016-11-11T00:50:47.381Z,2.7
2016-11-11T00:51:48.813Z,2.7
2016-11-11T00:52:50.253Z,2.7
2016-11-11T00:53:51.693Z,2.7
2016-11-11T00:54:53.127Z,2.7
2016-11-11T00:55:55.059Z,2.7
2016-11-11T00:56:56.494Z,2.7
2016-11-11T00:57:57.935Z,2.7
2016-11-11T00:58:59.370Z,2.7
2016-11-11T01:00:00.806Z,2.7
2016-11-11T01:01:02.244Z,2.6
2016-11-11T01:02:03.682Z,2.6
2016-11-11T01:03:05.119Z,2.6
2016-11-11T01:04:06.557Z,2.6
2016-11-11T01:05:07.989Z,2.6
2016-11-11T01:07:10.826Z,2.6
2016-11-11T01:08:12.257Z,2.6
2016-11-11T01:09:13.692Z,2.6
2016-11-11T01:10:15.127Z,2.6
2016-11-11T01:11:16.558Z,2.6
2016-11-11T01:12:18.490Z,2.6
2016-11-11T01:13:19.926Z,2.6
2016-11-11T01:14:21.373Z,2.6
2016-11-11T01:16:24.210Z,2.6
2016-11-11T01:17:25.647Z,2.6
2016-11-11T01:18:27.081Z,2.6
2016-11-11T01:19:28.515Z,2.6
2016-11-11T01:20:29.948Z,2.6
2016-11-11T01:21:31.382Z,2.6
2016-11-11T01:22:32.848Z,2.6
2016-11-11T01:23:34.281Z,2.6
2016-11-11T01:25:37.126Z,2.6
2016-11-11T01:26:38.557Z,2.5
2016-11-11T01:27:39.992Z,2.5
2016-11-11T01:28:41.929Z,2.5
2016-11-11T01:29:43.362Z,2.5
2016-11-11T01:30:44.796Z,2.5
2016-11-11T01:32:47.635Z,2.5
2016-11-11T01:33:49.065Z,2.5
2016-11-11T01:34:50.497Z,2.5
2016-11-11T01:35:51.964Z,2.5
2016-11-11T01:36:53.395Z,2.5
2016-11-11T01:37:54.825Z,2.5
2016-11-11T01:38:56.255Z,2.5
2016-11-11T01:39:57.690Z,2.5
2016-11-11T01:40:59.123Z,2.5
2016-11-11T01:42:00.557Z,2.5
2016-11-11T01:43:01.991Z,2.5
2016-11-11T01:44:03.421Z,2.5
2016-11-11T01:45:04.991Z,2.5
2016-11-11T01:46:06.422Z,2.5
2016-11-11T01:47:07.866Z,2.5
2016-11-11T01:48:09.303Z,2.5
2016-11-11T01:49:10.737Z,2.5
2016-11-11T01:50:12.173Z,2.5
2016-11-11T01:51:13.605Z,2.5
2016-11-11T01:52:15.544Z,2.5
2016-11-11T01:53:16.982Z,2.5
2016-11-11T01:54:18.422Z,2.5
2016-11-11T01:55:19.855Z,2.5
2016-11-11T01:56:21.290Z,2.5
2016-11-11T01:57:22.725Z,2.5
2016-11-11T01:58:24.160Z,2.5
2016-11-11T01:59:25.595Z,2.5
2016-11-11T02:00:27.026Z,2.4
2016-11-11T02:01:28.460Z,2.5
2016-11-11T02:02:29.891Z,2.5
2016-11-11T02:03:31.336Z,2.5
2016-11-11T02:05:34.182Z,2.5
2016-11-11T02:06:35.686Z,2.5
2016-11-11T02:07:37.258Z,2.5
2016-11-11T02:08:38.691Z,2.5
2016-11-11T02:10:41.533Z,2.5
2016-11-11T02:11:42.975Z,2.5
2016-11-11T02:12:44.415Z,2.5
2016-11-11T02:13:45.853Z,2.5
2016-11-11T02:14:47.292Z,2.4
2016-11-11T02:15:48.729Z,2.4
2016-11-11T02:16:50.187Z,2.4
2016-11-11T02:17:51.624Z,2.4
2016-11-11T02:18:53.098Z,2.4
2016-11-11T02:19:54.535Z,2.4
2016-11-11T02:20:55.975Z,2.4
2016-11-11T02:21:58.056Z,2.4
2016-11-11T02:22:58.991Z,2.4
2016-11-11T02:24:00.427Z,2.4
2016-11-11T02:25:01.866Z,2.4
2016-11-11T02:26:03.372Z,2.4
2016-11-11T02:27:04.815Z,2.4
2016-11-11T02:28:06.255Z,2.4
2016-11-11T02:29:07.691Z,2.4
2016-11-11T02:30:09.139Z,2.4
2016-11-11T02:31:10.580Z,2.4
2016-11-11T02:32:12.518Z,2.4
2016-11-11T02:33:13.958Z,2.4
2016-11-11T02:34:15.398Z,2.4
2016-11-11T02:35:16.840Z,2.3
2016-11-11T02:36:18.278Z,2.4
2016-11-11T02:37:19.719Z,2.4
2016-11-11T02:38:21.163Z,2.3
2016-11-11T02:39:22.601Z,2.3
2016-11-11T02:40:24.043Z,2.3
2016-11-11T02:41:25.480Z,2.3
2016-11-11T02:42:26.920Z,2.3
2016-11-11T02:45:31.173Z,2.3
2016-11-11T02:46:32.610Z,2.3
2016-11-11T02:47:34.043Z,2.3
2016-11-11T02:48:35.483Z,2.3
2016-11-11T02:49:36.923Z,2.3
2016-11-11T02:50:38.368Z,2.3
2016-11-11T02:51:39.805Z,2.3
2016-11-11T02:52:41.253Z,2.3
2016-11-11T02:53:42.684Z,2.3
2016-11-11T02:54:44.121Z,2.3
2016-11-11T02:55:45.591Z,2.3
2016-11-11T02:56:47.031Z,2.3
2016-11-11T02:57:48.478Z,2.3
2016-11-11T02:58:50.419Z,2.3
2016-11-11T02:59:51.857Z,2.3
2016-11-11T03:00:53.297Z,2.3
2016-11-11T03:01:54.734Z,2.3
2016-11-11T03:02:56.173Z,2.3
2016-11-11T03:03:57.608Z,2.3
2016-11-11T03:04:59.048Z,2.3
2016-11-11T03:06:00.488Z,2.3
2016-11-11T03:07:01.927Z,2.3
2016-11-11T03:08:03.366Z,2.3
2016-11-11T03:09:04.809Z,2.2
2016-11-11T03:10:06.248Z,2.2
2016-11-11T03:11:07.686Z,2.2
2016-11-11T03:12:09.123Z,2.2
2016-11-11T03:13:10.554Z,2.2
2016-11-11T03:14:11.992Z,2.2
2016-11-11T03:15:13.429Z,2.2
2016-11-11T03:16:14.863Z,2.2
2016-11-11T03:18:17.697Z,2.2
2016-11-11T03:19:19.129Z,2.2
2016-11-11T03:20:20.638Z,2.2
2016-11-11T03:21:22.073Z,2.2
2016-11-11T03:22:23.502Z,2.2
2016-11-11T03:23:24.940Z,2.2
2016-11-11T03:24:26.377Z,2.2
2016-11-11T03:25:27.819Z,2.2
2016-11-11T03:26:29.258Z,2.2
2016-11-11T03:27:30.691Z,2.2
2016-11-11T03:28:32.128Z,2.2
2016-11-11T03:29:33.563Z,2.2
2016-11-11T03:30:35.507Z,2.2
2016-11-11T03:31:36.939Z,2.2
2016-11-11T03:32:38.376Z,2.2
2016-11-11T03:33:39.816Z,2.1
2016-11-11T03:34:41.254Z,2.2
2016-11-11T03:35:42.685Z,2.2
2016-11-11T03:36:44.123Z,2.2
2016-11-11T03:37:45.559Z,2.1
2016-11-11T03:38:46.994Z,2.1
2016-11-11T03:39:48.501Z,2.1
2016-11-11T03:40:49.975Z,2.1
2016-11-11T03:41:51.411Z,2.1
2016-11-11T03:42:52.848Z,2.1
2016-11-11T03:43:54.289Z,2.1
2016-11-11T03:44:55.725Z,2.2
2016-11-11T03:45:57.165Z,2.1
2016-11-11T03:46:58.606Z,2.1
2016-11-11T03:48:00.041Z,2.1
2016-11-11T03:49:01.479Z,2.1
2016-11-11T03:50:02.917Z,2.1
2016-11-11T03:51:04.354Z,2.1
2016-11-11T03:52:05.841Z,2.1
2016-11-11T03:53:07.276Z,2.1
2016-11-11T03:54:08.715Z,2.1
2016-11-11T03:55:10.151Z,2.1
2016-11-11T03:56:11.588Z,2.1
2016-11-11T03:58:14.429Z,2.1
2016-11-11T03:59:15.866Z,2.1
2016-11-11T04:00:17.303Z,2.1
2016-11-11T04:01:18.742Z,2.1
2016-11-11T04:02:20.173Z,2.1
2016-11-11T04:03:21.608Z,2.1
2016-11-11T04:04:23.041Z,2.1
2016-11-11T04:05:24.479Z,2.1
2016-11-11T04:06:25.918Z,2
2016-11-11T04:07:27.364Z,2.1
2016-11-11T04:08:28.801Z,2
2016-11-11T04:09:30.242Z,2
2016-11-11T04:10:31.681Z,2
2016-11-11T04:12:35.025Z,2
2016-11-11T04:13:36.463Z,2
2016-11-11T04:14:37.896Z,2
2016-11-11T04:15:39.332Z,2
2016-11-11T04:16:40.776Z,2
2016-11-11T04:17:42.220Z,2
2016-11-11T04:18:43.658Z,2
2016-11-11T04:19:45.092Z,2
2016-11-11T04:21:47.933Z,2
2016-11-11T04:22:49.367Z,2
2016-11-11T04:23:50.800Z,2
2016-11-11T04:24:52.235Z,2
2016-11-11T04:25:53.668Z,2
2016-11-11T04:26:55.103Z,2
2016-11-11T04:27:56.542Z,2
2016-11-11T04:28:57.976Z,2
2016-11-11T04:31:00.821Z,2
2016-11-11T04:32:02.257Z,2
2016-11-11T04:33:03.695Z,2
2016-11-11T04:34:05.196Z,2
2016-11-11T04:35:06.633Z,2
2016-11-11T04:36:08.069Z,2
2016-11-11T04:37:09.511Z,2
2016-11-11T04:38:10.946Z,2
2016-11-11T04:39:12.379Z,2
2016-11-11T04:40:13.817Z,2
2016-11-11T04:41:15.252Z,2
2016-11-11T04:42:16.690Z,2
2016-11-11T04:43:18.126Z,2
2016-11-11T04:44:19.561Z,2
2016-11-11T04:45:20.998Z,1.9
2016-11-11T04:46:22.434Z,1.9
2016-11-11T04:47:23.866Z,1.9
2016-11-11T04:48:25.305Z,1.9
2016-11-11T04:49:26.749Z,1.9
2016-11-11T04:50:28.184Z,1.9
2016-11-11T04:51:29.619Z,1.9
2016-11-11T04:52:31.063Z,1.9
2016-11-11T04:53:32.494Z,2
2016-11-11T04:54:33.936Z,2
2016-11-11T04:55:35.374Z,1.9
2016-11-11T04:56:36.874Z,1.9
2016-11-11T04:57:38.316Z,1.9
2016-11-11T04:58:39.758Z,1.9
2016-11-11T04:59:41.194Z,1.9
2016-11-11T05:00:42.630Z,1.9
2016-11-11T05:01:44.068Z,1.9
2016-11-11T05:02:45.508Z,1.9
2016-11-11T05:04:48.865Z,1.9
2016-11-11T05:05:50.302Z,1.9
2016-11-11T05:06:51.770Z,1.9
2016-11-11T05:07:53.212Z,2
2016-11-11T05:08:54.659Z,2
2016-11-11T05:09:56.095Z,2
2016-11-11T05:10:57.542Z,2
2016-11-11T05:11:58.979Z,2
2016-11-11T05:13:00.419Z,2
2016-11-11T05:14:01.857Z,2
2016-11-11T05:15:03.298Z,2
2016-11-11T05:16:04.737Z,2
2016-11-11T05:17:06.178Z,2
2016-11-11T05:18:07.612Z,2
2016-11-11T05:19:09.044Z,2
2016-11-11T05:20:10.510Z,2
2016-11-11T05:22:13.352Z,2
2016-11-11T05:23:14.934Z,2
2016-11-11T05:24:16.370Z,2
2016-11-11T05:25:17.811Z,2
2016-11-11T05:26:19.249Z,2
2016-11-11T05:27:20.828Z,1.9
2016-11-11T05:28:21.765Z,2
2016-11-11T05:29:23.337Z,1.9
2016-11-11T05:30:24.772Z,2
2016-11-11T05:31:26.205Z,2
2016-11-11T05:32:27.671Z,1.9
2016-11-11T05:33:29.105Z,2
2016-11-11T05:34:30.538Z,2
2016-11-11T05:35:31.976Z,2
2016-11-11T05:36:33.416Z,2
2016-11-11T05:37:34.866Z,2
2016-11-11T05:38:36.309Z,2
2016-11-11T05:39:37.743Z,2
2016-11-11T05:40:39.179Z,2
2016-11-11T05:41:40.618Z,2
2016-11-11T05:42:42.057Z,2
2016-11-11T05:43:43.491Z,2
2016-11-11T05:44:44.931Z,2
2016-11-11T05:45:46.368Z,2
2016-11-11T05:46:47.810Z,2
2016-11-11T05:47:49.247Z,2
2016-11-11T05:48:50.683Z,2
2016-11-11T05:49:52.153Z,2
2016-11-11T05:50:53.586Z,2
2016-11-11T05:51:55.021Z,2
2016-11-11T05:52:56.456Z,2
2016-11-11T05:53:57.895Z,2
2016-11-11T05:54:59.834Z,2
2016-11-11T05:56:01.274Z,2
2016-11-11T05:58:04.113Z,2
2016-11-11T05:59:05.557Z,2
2016-11-11T06:00:06.992Z,2
2016-11-11T06:01:08.428Z,2
2016-11-11T06:02:09.865Z,1.9
2016-11-11T06:03:11.306Z,1.9
2016-11-11T06:05:14.156Z,1.9
2016-11-11T06:06:15.591Z,1.9
2016-11-11T06:07:17.030Z,1.9
2016-11-11T06:08:18.468Z,1.9
2016-11-11T06:09:19.900Z,1.9
2016-11-11T06:10:21.332Z,1.9
2016-11-11T06:12:24.169Z,1.9
2016-11-11T06:13:25.608Z,1.9
2016-11-11T06:14:27.049Z,1.9
2016-11-11T06:15:28.628Z,1.9
2016-11-11T06:16:30.062Z,1.9
2016-11-11T06:17:31.500Z,1.9
2016-11-11T06:18:32.938Z,1.9
2016-11-11T06:19:34.379Z,1.9
2016-11-11T06:20:35.814Z,1.9
2016-11-11T06:21:37.257Z,2
2016-11-11T06:22:38.695Z,2
2016-11-11T06:23:40.128Z,2
2016-11-11T06:25:42.969Z,2
2016-11-11T06:26:44.412Z,2.1
2016-11-11T06:27:45.844Z,2.1
2016-11-11T06:28:47.285Z,2.1
2016-11-11T06:29:48.727Z,2.1
2016-11-11T06:30:50.158Z,2
2016-11-11T06:31:51.595Z,2
2016-11-11T06:32:53.028Z,2
2016-11-11T06:33:54.460Z,2
2016-11-11T06:34:55.900Z,2
2016-11-11T06:35:57.337Z,2
2016-11-11T06:36:58.778Z,2
2016-11-11T06:38:00.215Z,2
2016-11-11T06:39:01.651Z,2
2016-11-11T06:40:03.084Z,2
2016-11-11T06:41:04.528Z,2
2016-11-11T06:42:05.969Z,2
2016-11-11T06:44:09.311Z,2
2016-11-11T06:45:10.885Z,2
2016-11-11T06:46:11.816Z,2
2016-11-11T06:47:13.258Z,2
2016-11-11T06:48:14.694Z,2
2016-11-11T06:49:16.129Z,2
2016-11-11T06:50:17.565Z,2
2016-11-11T06:51:18.998Z,2
2016-11-11T06:52:21.077Z,2
2016-11-11T06:53:22.006Z,2
2016-11-11T06:54:23.448Z,2
2016-11-11T06:55:24.892Z,2
2016-11-11T06:56:26.333Z,2
2016-11-11T06:57:27.789Z,2
2016-11-11T06:58:29.223Z,2
2016-11-11T06:59:30.655Z,2
2016-11-11T07:00:32.091Z,2
2016-11-11T07:01:33.528Z,2
2016-11-11T07:02:34.967Z,2
2016-11-11T07:03:36.405Z,2
2016-11-11T07:04:37.847Z,2
2016-11-11T07:05:39.782Z,2
2016-11-11T07:06:41.211Z,2
2016-11-11T07:07:42.680Z,2
2016-11-11T07:08:44.109Z,2
2016-11-11T07:09:45.544Z,2
2016-11-11T07:10:47.015Z,2
2016-11-11T07:12:49.857Z,2
2016-11-11T07:13:51.287Z,2
2016-11-11T07:14:52.725Z,2
2016-11-11T07:15:54.163Z,2.1
2016-11-11T07:16:55.599Z,2
2016-11-11T07:17:57.047Z,2
2016-11-11T07:18:58.488Z,2.1
2016-11-11T07:21:01.328Z,2.1
2016-11-11T07:22:02.762Z,2.1
2016-11-11T07:23:04.205Z,2.1
2016-11-11T07:24:05.787Z,2.1
2016-11-11T07:25:07.226Z,2.1
2016-11-11T07:26:08.799Z,2.1
2016-11-11T07:28:11.636Z,2.1
2016-11-11T07:29:13.071Z,2.1
2016-11-11T07:30:14.507Z,2.1
2016-11-11T07:31:15.952Z,2.1
2016-11-11T07:32:17.394Z,2.1
2016-11-11T07:33:18.831Z,2.1
2016-11-11T07:34:20.268Z,2.1
2016-11-11T07:35:21.708Z,2.1
2016-11-11T07:36:23.141Z,2.1
2016-11-11T07:37:24.585Z,2.1
2016-11-11T07:39:27.428Z,2.1
2016-11-11T07:40:28.871Z,2.1
2016-11-11T07:41:30.304Z,2.1
2016-11-11T07:42:31.806Z,2.1
2016-11-11T07:43:33.250Z,2.1
2016-11-11T07:44:34.685Z,2.1
2016-11-11T07:45:36.120Z,2.1
2016-11-11T07:46:37.553Z,2.1
2016-11-11T07:47:38.985Z,2.1
2016-11-11T07:48:40.435Z,2.1
2016-11-11T07:49:41.874Z,2.1
2016-11-11T07:52:46.112Z,2.1
2016-11-11T07:53:47.547Z,2.1
2016-11-11T07:54:48.984Z,2.1
2016-11-11T07:55:50.424Z,2.1
2016-11-11T07:56:51.860Z,2.1
2016-11-11T07:58:55.207Z,2.1
2016-11-11T07:59:56.638Z,2.1
2016-11-11T08:00:58.073Z,2.1
2016-11-11T08:01:59.515Z,2.1
2016-11-11T08:03:00.966Z,2.1
2016-11-11T08:05:03.807Z,2.1
2016-11-11T08:06:05.243Z,2.1
2016-11-11T08:07:06.741Z,2.1
2016-11-11T08:08:08.189Z,2.1
2016-11-11T08:09:09.690Z,2.2
2016-11-11T08:10:11.313Z,2.2
2016-11-11T08:11:12.243Z,2.2
2016-11-11T08:12:13.680Z,2.2
2016-11-11T08:13:15.114Z,2.2
2016-11-11T08:14:16.553Z,2.2
2016-11-11T08:15:18.004Z,2.2
2016-11-11T08:16:19.438Z,2.2
2016-11-11T08:17:21.381Z,2.2
2016-11-11T08:18:22.817Z,2.2
2016-11-11T08:19:24.248Z,2.2
2016-11-11T08:20:25.678Z,2.2
2016-11-11T08:21:27.110Z,2.2
2016-11-11T08:22:28.545Z,2.2
2016-11-11T08:23:29.977Z,2.2
2016-11-11T08:24:31.412Z,2.2
2016-11-11T08:25:32.843Z,2.2
2016-11-11T08:26:34.277Z,2.2
2016-11-11T08:27:35.712Z,2.2
2016-11-11T08:28:37.144Z,2.2
2016-11-11T08:30:39.977Z,2.2
2016-11-11T08:31:41.416Z,2.2
2016-11-11T08:32:42.859Z,2.2
2016-11-11T08:33:44.294Z,2.2
2016-11-11T08:34:45.735Z,2.2
2016-11-11T08:35:47.181Z,2.2
2016-11-11T08:36:48.625Z,2.2
2016-11-11T08:37:50.058Z,2.2
2016-11-11T08:38:51.492Z,2.2
2016-11-11T08:39:52.922Z,2.2
2016-11-11T08:40:54.351Z,2.2
2016-11-11T08:41:55.789Z,2.2
2016-11-11T08:42:57.728Z,2.2
2016-11-11T08:43:59.161Z,2.2
2016-11-11T08:45:00.599Z,2.2
2016-11-11T08:46:02.035Z,2.2
2016-11-11T08:47:03.475Z,2.2
2016-11-11T08:48:04.918Z,2.2
2016-11-11T08:49:06.354Z,2.2
2016-11-11T08:50:07.789Z,2.2
2016-11-11T08:51:09.227Z,2.2
2016-11-11T08:52:10.661Z,2.2
2016-11-11T08:53:12.102Z,2.2
2016-11-11T08:54:13.537Z,2.2
2016-11-11T08:56:16.383Z,2.2
2016-11-11T08:57:17.818Z,2.2
2016-11-11T08:58:19.254Z,2.2
2016-11-11T08:59:20.895Z,2.2
2016-11-11T09:00:22.341Z,2.2
2016-11-11T09:01:23.779Z,2.2
2016-11-11T09:02:25.214Z,2.2
2016-11-11T09:03:26.645Z,2.2
2016-11-11T09:04:28.081Z,2.3
2016-11-11T09:05:29.517Z,2.2
2016-11-11T09:06:30.963Z,2.3
2016-11-11T09:07:32.398Z,2.2
2016-11-11T09:08:33.828Z,2.3
2016-11-11T09:09:35.263Z,2.3
2016-11-11T09:10:36.707Z,2.3
2016-11-11T09:11:38.153Z,2.3
2016-11-11T09:12:39.723Z,2.3
2016-11-11T09:13:41.205Z,2.3
2016-11-11T09:14:42.641Z,2.3
2016-11-11T09:15:44.080Z,2.3
2016-11-11T09:16:45.513Z,2.3
2016-11-11T09:17:46.945Z,2.3
2016-11-11T09:18:48.382Z,2.3
2016-11-11T09:19:49.821Z,2.3
2016-11-11T09:20:51.300Z,2.3
2016-11-11T09:21:52.739Z,2.3
2016-11-11T09:22:54.176Z,2.3
2016-11-11T09:23:55.611Z,2.3
2016-11-11T09:24:57.044Z,2.3
2016-11-11T09:25:58.480Z,2.3
2016-11-11T09:26:59.917Z,2.4
2016-11-11T09:28:01.355Z,2.4
2016-11-11T09:29:02.787Z,2.3
2016-11-11T09:30:04.229Z,2.4
2016-11-11T09:31:05.673Z,2.4
2016-11-11T09:32:07.112Z,2.4
2016-11-11T09:33:08.547Z,2.4
2016-11-11T09:34:09.987Z,2.4
2016-11-11T09:35:11.929Z,2.4
2016-11-11T09:36:13.362Z,2.4
2016-11-11T09:37:14.802Z,2.4
2016-11-11T09:38:16.237Z,2.5
2016-11-11T09:39:17.671Z,2.4
2016-11-11T09:40:19.104Z,2.5
2016-11-11T09:41:20.543Z,2.5
2016-11-11T09:42:21.972Z,2.5
2016-11-11T09:43:23.408Z,2.5
2016-11-11T09:44:24.849Z,2.5
2016-11-11T09:45:26.281Z,2.5
2016-11-11T09:46:27.718Z,2.5
2016-11-11T09:47:29.292Z,2.5
2016-11-11T09:48:30.731Z,2.5
2016-11-11T09:50:33.565Z,2.5
2016-11-11T09:51:35.002Z,2.5
2016-11-11T09:52:36.440Z,2.5
2016-11-11T09:53:37.877Z,2.5
2016-11-11T09:54:39.315Z,2.5
2016-11-11T09:55:40.749Z,2.5
2016-11-11T09:56:42.186Z,2.5
2016-11-11T09:57:43.621Z,2.5
2016-11-11T09:58:45.108Z,2.5
2016-11-11T09:59:46.545Z,2.5
2016-11-11T10:00:47.985Z,2.5
2016-11-11T10:01:49.453Z,2.4
2016-11-11T10:02:50.886Z,2.4
2016-11-11T10:03:52.320Z,2.5
2016-11-11T10:04:53.758Z,2.5
2016-11-11T10:05:55.705Z,2.5
2016-11-11T10:06:57.138Z,2.5
2016-11-11T10:07:58.576Z,2.4
2016-11-11T10:09:00.016Z,2.4
2016-11-11T10:10:01.601Z,2.5
2016-11-11T10:11:02.533Z,2.5
2016-11-11T10:12:03.976Z,2.5
2016-11-11T10:13:05.916Z,2.5
2016-11-11T10:14:07.352Z,2.5
2016-11-11T10:15:08.936Z,2.5
2016-11-11T10:16:09.869Z,2.5
2016-11-11T10:17:11.456Z,2.5
2016-11-11T10:18:12.887Z,2.5
2016-11-11T10:19:14.314Z,2.5
2016-11-11T10:21:17.147Z,2.5
2016-11-11T10:22:18.584Z,2.5
2016-11-11T10:23:20.020Z,2.5
2016-11-11T10:24:21.956Z,2.5
2016-11-11T10:25:23.403Z,2.5
2016-11-11T10:26:24.841Z,2.5
2016-11-11T10:27:26.281Z,2.5
2016-11-11T10:28:27.724Z,2.5
2016-11-11T10:29:29.166Z,2.5
2016-11-11T10:30:30.605Z,2.5
2016-11-11T10:31:32.036Z,2.5
2016-11-11T10:34:36.349Z,2.6
2016-11-11T10:35:37.784Z,2.6
2016-11-11T10:36:39.216Z,2.6
2016-11-11T10:37:40.653Z,2.6
2016-11-11T10:38:42.087Z,2.6
2016-11-11T10:39:43.529Z,2.6
2016-11-11T10:40:44.975Z,2.6
2016-11-11T10:41:46.420Z,2.6
2016-11-11T10:42:47.854Z,2.6
2016-11-11T10:43:49.299Z,2.6
2016-11-11T10:44:50.735Z,2.6
2016-11-11T10:45:52.174Z,2.6
2016-11-11T10:46:53.607Z,2.6
2016-11-11T10:47:55.543Z,2.6
2016-11-11T10:48:56.978Z,2.6
2016-11-11T10:49:58.417Z,2.6
2016-11-11T10:50:59.845Z,2.6
2016-11-11T10:52:01.281Z,2.6
2016-11-11T10:53:02.719Z,2.7
2016-11-11T10:54:04.308Z,2.7
2016-11-11T10:55:05.758Z,2.7
2016-11-11T10:56:07.196Z,2.7
2016-11-11T10:57:08.635Z,2.7
2016-11-11T10:58:10.069Z,2.7
2016-11-11T10:59:11.508Z,2.7
2016-11-11T11:00:12.952Z,2.7
2016-11-11T11:01:14.388Z,2.7
2016-11-11T11:02:15.884Z,2.7
2016-11-11T11:03:17.318Z,2.7
2016-11-11T11:04:18.754Z,2.7
2016-11-11T11:05:20.206Z,2.7
2016-11-11T11:07:23.051Z,2.7
2016-11-11T11:08:24.485Z,2.7
2016-11-11T11:09:25.920Z,2.7
2016-11-11T11:10:27.353Z,2.7
2016-11-11T11:11:28.785Z,2.7
2016-11-11T11:12:30.228Z,2.7
2016-11-11T11:13:31.662Z,2.7
2016-11-11T11:14:33.599Z,2.7
2016-11-11T11:15:34.668Z,2.7
2016-11-11T11:16:36.100Z,2.7
2016-11-11T11:17:37.546Z,2.7
2016-11-11T11:18:39.621Z,2.7
2016-11-11T11:19:40.554Z,2.7
2016-11-11T11:20:41.991Z,2.7
2016-11-11T11:21:43.426Z,2.7
2016-11-11T11:22:45.005Z,2.7
2016-11-11T11:23:46.464Z,2.7
2016-11-11T11:24:47.903Z,2.7
2016-11-11T11:25:49.343Z,2.7
2016-11-11T11:26:50.784Z,2.7
2016-11-11T11:27:52.254Z,2.8
2016-11-11T11:28:53.696Z,2.8
2016-11-11T11:29:55.135Z,2.7
2016-11-11T11:30:56.570Z,2.7
2016-11-11T11:31:58.510Z,2.8
2016-11-11T11:32:59.946Z,2.7
2016-11-11T11:34:01.382Z,2.7
2016-11-11T11:35:02.453Z,2.7
2016-11-11T11:36:04.398Z,2.7
2016-11-11T11:37:05.832Z,2.7
2016-11-11T11:38:07.270Z,2.7
2016-11-11T11:39:08.711Z,2.8
2016-11-11T11:40:10.150Z,2.7
2016-11-11T11:41:11.587Z,2.7
2016-11-11T11:42:13.037Z,2.7
2016-11-11T11:43:14.483Z,2.7
2016-11-11T11:44:15.918Z,2.7
2016-11-11T11:47:20.224Z,2.7
2016-11-11T11:48:21.657Z,2.8
2016-11-11T11:49:23.103Z,2.8
2016-11-11T11:50:24.538Z,2.8
2016-11-11T11:51:25.969Z,2.8
2016-11-11T11:52:27.611Z,2.8
2016-11-11T11:53:29.055Z,2.8
2016-11-11T11:54:30.491Z,2.8
2016-11-11T11:55:31.963Z,2.8
2016-11-11T11:56:33.402Z,2.8
2016-11-11T11:57:34.846Z,2.8
2016-11-11T11:58:36.287Z,2.9
2016-11-11T11:59:37.722Z,2.9
2016-11-11T12:00:39.159Z,2.8
2016-11-11T12:01:40.594Z,2.8
2016-11-11T12:02:42.537Z,2.8
2016-11-11T12:03:43.979Z,2.8
2016-11-11T12:04:45.412Z,2.8
2016-11-11T12:05:46.845Z,2.8
2016-11-11T12:06:48.283Z,2.8
2016-11-11T12:07:49.723Z,2.8
2016-11-11T12:08:51.300Z,2.8
2016-11-11T12:09:52.737Z,2.8
2016-11-11T12:10:54.168Z,2.8
2016-11-11T12:11:55.605Z,2.8
2016-11-11T12:12:57.042Z,2.8
2016-11-11T12:13:58.687Z,2.8
2016-11-11T12:15:00.125Z,2.8
2016-11-11T12:16:01.564Z,2.8
2016-11-11T12:17:03.001Z,2.8
2016-11-11T12:18:04.437Z,2.8
2016-11-11T12:19:05.879Z,2.8
2016-11-11T12:20:07.316Z,2.8
2016-11-11T12:21:08.749Z,2.8
2016-11-11T12:22:10.189Z,2.8
2016-11-11T12:23:11.633Z,2.8
2016-11-11T12:24:13.070Z,2.8
2016-11-11T12:25:14.516Z,2.8
2016-11-11T12:26:15.954Z,2.8
2016-11-11T12:27:17.393Z,2.8
2016-11-11T12:28:18.824Z,2.8
2016-11-11T12:29:20.263Z,2.8
2016-11-11T12:30:21.700Z,2.8
2016-11-11T12:31:23.644Z,2.8
2016-11-11T12:32:25.078Z,2.8
2016-11-11T12:34:27.918Z,2.8
2016-11-11T12:35:29.348Z,2.8
2016-11-11T12:36:30.782Z,2.8
2016-11-11T12:37:32.223Z,2.8
2016-11-11T12:38:33.656Z,2.8
2016-11-11T12:39:35.089Z,2.8
2016-11-11T12:40:36.530Z,2.8
2016-11-11T12:41:38.100Z,2.8
2016-11-11T12:43:40.939Z,2.8
2016-11-11T12:44:42.376Z,2.8
2016-11-11T12:45:43.814Z,2.8
2016-11-11T12:46:45.247Z,2.8
2016-11-11T12:47:46.682Z,2.8
2016-11-11T12:48:48.116Z,2.8
2016-11-11T12:49:50.056Z,2.8
2016-11-11T12:50:51.498Z,2.8
2016-11-11T12:52:54.341Z,2.8
2016-11-11T12:53:55.780Z,2.8
2016-11-11T12:54:57.222Z,2.8
2016-11-11T12:55:58.654Z,2.8
2016-11-11T12:57:00.090Z,2.8
2016-11-11T12:58:01.523Z,2.8
2016-11-11T12:59:02.957Z,2.8
2016-11-11T13:00:04.390Z,2.8
2016-11-11T13:01:05.829Z,2.8
2016-11-11T13:02:07.268Z,2.8
2016-11-11T13:03:08.706Z,2.8
2016-11-11T13:04:10.146Z,2.8
2016-11-11T13:05:11.583Z,2.8
2016-11-11T13:06:13.523Z,2.8
2016-11-11T13:07:14.962Z,2.8
2016-11-11T13:08:16.397Z,2.8
2016-11-11T13:09:17.836Z,2.8
2016-11-11T13:10:19.272Z,2.8
2016-11-11T13:11:20.705Z,2.8
2016-11-11T13:12:22.139Z,2.8
2016-11-11T13:13:23.576Z,2.8
2016-11-11T13:14:25.008Z,2.8
2016-11-11T13:15:26.455Z,2.8
2016-11-11T13:16:27.898Z,2.8
2016-11-11T13:17:29.326Z,2.8
2016-11-11T13:18:30.762Z,2.7
2016-11-11T13:19:32.201Z,2.7
2016-11-11T13:20:33.774Z,2.7
2016-11-11T13:21:35.210Z,2.7
2016-11-11T13:22:36.651Z,2.7
2016-11-11T13:23:38.083Z,2.7
2016-11-11T13:24:39.524Z,2.7
2016-11-11T13:25:40.957Z,2.7
2016-11-11T13:26:42.396Z,2.7
2016-11-11T13:28:45.738Z,2.7
2016-11-11T13:29:47.170Z,2.7
2016-11-11T13:30:48.610Z,2.7
2016-11-11T13:31:50.049Z,2.7
2016-11-11T13:32:51.483Z,2.7
2016-11-11T13:33:52.924Z,2.7
2016-11-11T13:34:54.362Z,2.7
2016-11-11T13:35:55.799Z,2.7
2016-11-11T13:36:57.227Z,2.7
2016-11-11T13:37:58.668Z,2.7
2016-11-11T13:39:00.100Z,2.7
2016-11-11T13:40:01.536Z,2.7
2016-11-11T13:41:02.974Z,2.8
2016-11-11T13:42:04.407Z,2.7
2016-11-11T13:43:05.837Z,2.7
2016-11-11T13:44:07.779Z,2.7
2016-11-11T13:45:09.217Z,2.7
2016-11-11T13:46:10.649Z,2.7
2016-11-11T13:47:12.091Z,2.7
2016-11-11T13:48:13.539Z,2.7
2016-11-11T13:49:14.978Z,2.7
2016-11-11T13:50:16.432Z,2.7
2016-11-11T13:51:17.876Z,2.7
2016-11-11T13:52:19.309Z,2.7
2016-11-11T13:53:20.746Z,2.7
2016-11-11T13:54:22.190Z,2.7
2016-11-11T13:55:23.628Z,2.7
2016-11-11T13:56:25.063Z,2.7
2016-11-11T13:57:26.498Z,2.7
2016-11-11T13:58:28.250Z,2.7
2016-11-11T13:59:29.683Z,2.7
2016-11-11T14:00:31.119Z,2.7
2016-11-11T14:01:32.563Z,2.7
2016-11-11T14:02:34.045Z,2.7
2016-11-11T14:03:35.487Z,2.7
2016-11-11T14:04:36.922Z,2.7
2016-11-11T14:05:38.361Z,2.7
2016-11-11T14:06:39.792Z,2.7
2016-11-11T14:08:42.626Z,2.7
2016-11-11T14:09:44.065Z,2.7
2016-11-11T14:10:45.508Z,2.7
2016-11-11T14:11:46.944Z,2.7
2016-11-11T14:12:49.092Z,2.7
2016-11-11T14:13:50.324Z,2.7
2016-11-11T14:15:53.160Z,2.7
2016-11-11T14:16:54.591Z,2.7
2016-11-11T14:17:56.028Z,2.7
2016-11-11T14:18:57.467Z,2.7
2016-11-11T14:19:58.901Z,2.7
2016-11-11T14:21:00.332Z,2.7
2016-11-11T14:22:01.766Z,2.7
2016-11-11T14:23:03.199Z,2.7
2016-11-11T14:24:04.633Z,2.7
2016-11-11T14:25:05.991Z,2.7
2016-11-11T14:26:07.426Z,2.7
2016-11-11T14:27:08.864Z,2.7
2016-11-11T14:28:10.803Z,2.7
2016-11-11T14:29:12.234Z,2.7
2016-11-11T14:30:13.669Z,2.7
2016-11-11T14:31:15.106Z,2.7
2016-11-11T14:32:16.537Z,2.7
2016-11-11T14:33:17.977Z,2.7
2016-11-11T14:34:19.409Z,2.7
2016-11-11T14:35:20.844Z,2.7
2016-11-11T14:36:22.274Z,2.7
2016-11-11T14:37:23.712Z,2.7
2016-11-11T14:38:25.144Z,2.7
2016-11-11T14:39:26.581Z,2.7
2016-11-11T14:40:28.012Z,2.6
2016-11-11T14:41:29.449Z,2.6
2016-11-11T14:42:31.088Z,2.6
2016-11-11T14:43:32.527Z,2.6
2016-11-11T14:44:33.967Z,2.6
2016-11-11T14:45:35.404Z,2.6
2016-11-11T14:46:36.845Z,2.6
2016-11-11T14:47:38.419Z,2.6
2016-11-11T14:48:40.091Z,2.6
2016-11-11T14:49:41.554Z,2.6
2016-11-11T14:50:42.740Z,2.6
2016-11-11T14:51:44.197Z,2.6
2016-11-11T14:52:45.889Z,2.6
2016-11-11T14:53:47.411Z,2.6
2016-11-11T14:55:50.249Z,2.6
2016-11-11T14:56:51.684Z,2.6
2016-11-11T14:57:53.119Z,2.6
2016-11-11T14:58:54.554Z,2.6
2016-11-11T14:59:55.988Z,2.6
2016-11-11T15:00:57.422Z,2.6
2016-11-11T15:01:58.864Z,2.6
2016-11-11T15:03:00.300Z,2.6
2016-11-11T15:04:01.739Z,2.6
2016-11-11T15:05:03.177Z,2.6